Reed Point, Montana
Current Conditions -  °F | °C
As of 11:53 AM on Friday 21 Nov 2014 (Local Time) from KLVM Reporting Station
Clear Clear  
Wind Chill: 38°   Ceiling: Unl
Heat Index: 46°   Visibility: 10mi
Dew Point: 25°   Wind: 22mph
Humidity: 44%   Direction: 270°W
Pressure: 29.84"   Gusts: 36mph
Location:  45.71°N, 109.54°W
Report Text: KLVM 211853Z AUTO 27019G31KT 10SM CLR 08/M04 A2984 RMK AO2 PK WND 27038/1831 SLP105 T00781039
Loading
Personal Weather Stations






























Interactive Weather Map New forecast layout! Learn more

10-Day Weather Forecast

Advertisements
Track Severe Weather on mobile